Gearhart, Oregon
Current Conditions -  °F | °C
As of 7:55 AM on Thursday 23 Oct 2014 (Local Time) from KAST Reporting Station
Light Rain Light Rain  
Wind Chill: 11°   Ceiling: 9000
Heat Index: 11°   Visibility: 10mi
Dew Point:   Wind: 7mph
Humidity: 89%   Direction: 160°SSE
Pressure: 29.73"   Gusts: NA
Location:  45.8905°N, 123.667°W
Report Text: KAST 231455Z AUTO 16006KT 10SM -RA SCT065 OVC090 11/09 A2973 RMK AO2 RAE14B33 SLP068 P0000 60010 T01110094 51005
Loading
Personal Weather Stations






























Interactive Weather Map
Tropical Storm Tracking
New forecast layout! Learn more

10-Day Weather Forecast

Advertisements
Track Severe Weather on mobile